Time;durP1;ratioP1;P1;durP2;ratioP2;P2;SDS_P1;SDS_P2;PMS_P1;PMS_P2;Temp;Humidity;BMP_temperature;BMP_pressure;BME280_temperature;BME280_humidity;BME280_pressure;Samples;Min_cycle;Max_cycle;Signal;HPM_P1;HPM_P2
2023/08/30 00:00:40;;;;;;;7.93;7.33;;;15.70;99.90;;;;;;5035707;28;20772;-72
2023/08/30 00:03:09;;;;;;;8.13;7.53;;;15.70;99.90;;;;;;5034071;28;20477;-72
2023/08/30 00:05:40;;;;;;;8.30;7.60;;;15.70;99.90;;;;;;5036212;28;20968;-72
2023/08/30 00:08:08;;;;;;;8.30;7.60;;;15.70;99.90;;;;;;5035136;28;20434;-72
2023/08/30 00:10:37;;;;;;;8.93;8.23;;;15.70;99.90;;;;;;5035001;28;20409;-71
2023/08/30 00:13:07;;;;;;;7.67;7.07;;;15.70;99.90;;;;;;5034431;28;20410;-71
2023/08/30 00:15:35;;;;;;;9.80;8.23;;;15.70;99.90;;;;;;5034341;28;20455;-72
2023/08/30 00:18:04;;;;;;;8.57;7.87;;;15.70;99.90;;;;;;5034335;28;20459;-72
2023/08/30 00:20:32;;;;;;;9.27;8.47;;;15.60;99.90;;;;;;5034212;28;20439;-72
2023/08/30 00:23:00;;;;;;;8.60;8.00;;;15.60;99.90;;;;;;5034197;28;20452;-72
2023/08/30 00:25:28;;;;;;;8.40;7.70;;;15.60;99.90;;;;;;5034083;28;20433;-72
2023/08/30 00:27:56;;;;;;;9.43;8.70;;;15.60;99.90;;;;;;5034016;28;20437;-71
2023/08/30 00:30:26;;;;;;;8.53;7.83;;;15.60;99.90;;;;;;5034246;28;20525;-72
2023/08/30 00:32:56;;;;;;;8.50;7.90;;;15.60;99.90;;;;;;5032763;28;20422;-71
2023/08/30 00:35:24;;;;;;;7.80;7.20;;;15.60;99.90;;;;;;5032484;28;20486;-72
2023/08/30 00:37:52;;;;;;;8.57;7.77;;;15.60;99.90;;;;;;5031660;28;20425;-71
2023/08/30 00:40:24;;;;;;;8.63;7.70;;;15.60;99.90;;;;;;5033994;28;20433;-71
2023/08/30 00:42:53;;;;;;;8.13;7.30;;;15.60;99.90;;;;;;5032284;28;20543;-72
2023/08/30 00:45:22;;;;;;;8.37;7.67;;;15.60;99.90;;;;;;5033637;28;20557;-71
2023/08/30 00:47:51;;;;;;;8.50;7.70;;;15.60;99.90;;;;;;5034057;28;20425;-71
2023/08/30 00:50:20;;;;;;;8.43;7.73;;;15.60;99.90;;;;;;5033996;28;20441;-71
2023/08/30 00:52:49;;;;;;;7.40;6.80;;;15.50;99.90;;;;;;5034043;28;20514;-71
2023/08/30 00:55:17;;;;;;;8.07;7.43;;;15.50;99.90;;;;;;5033975;28;20436;-71
2023/08/30 00:57:46;;;;;;;8.00;7.40;;;15.50;99.90;;;;;;5033720;28;20801;-71
2023/08/30 01:00:16;;;;;;;9.13;8.43;;;15.50;99.90;;;;;;5033672;28;20407;-71
2023/08/30 01:02:45;;;;;;;8.90;8.20;;;15.50;99.90;;;;;;5032619;28;20936;-71
2023/08/30 01:05:15;;;;;;;8.47;7.87;;;15.50;99.90;;;;;;5032192;28;20512;-71
2023/08/30 01:07:43;;;;;;;8.17;7.57;;;15.50;99.90;;;;;;5032569;28;20438;-71
2023/08/30 01:10:12;;;;;;;8.80;8.10;;;15.40;99.90;;;;;;5032135;28;20516;-71
2023/08/30 01:12:44;;;;;;;8.67;7.73;;;15.40;99.90;;;;;;5033275;28;20438;-71
2023/08/30 01:15:17;;;;;;;9.10;8.40;;;15.40;99.90;;;;;;5033182;28;20454;-71
2023/08/30 01:17:45;;;;;;;8.67;8.00;;;15.40;99.90;;;;;;5032083;28;20462;-71
2023/08/30 01:20:18;;;;;;;8.73;8.03;;;15.40;99.90;;;;;;5033960;28;20431;-71
2023/08/30 01:22:58;;;;;;;9.00;8.30;;;15.40;99.90;;;;;;5031965;28;20585;-71
2023/08/30 01:25:41;;;;;;;8.43;7.83;;;15.40;99.90;;;;;;5031999;28;20457;-71
2023/08/30 01:28:11;;;;;;;8.73;8.03;;;15.40;99.90;;;;;;5033798;28;20481;-72
2023/08/30 01:30:42;;;;;;;8.80;8.07;;;15.40;99.90;;;;;;5033327;28;20477;-71
2023/08/30 01:33:14;;;;;;;9.13;8.47;;;15.40;99.90;;;;;;5031845;28;20451;-71
2023/08/30 01:35:43;;;;;;;9.60;8.80;;;15.30;99.90;;;;;;5031832;28;20463;-71
2023/08/30 01:38:12;;;;;;;8.40;7.80;;;15.40;99.90;;;;;;5033067;28;20484;-71
2023/08/30 01:40:43;;;;;;;8.23;7.53;;;15.40;99.90;;;;;;5033186;28;20414;-71
2023/08/30 01:43:14;;;;;;;8.43;7.73;;;15.30;99.90;;;;;;5033529;28;20448;-71
2023/08/30 01:45:44;;;;;;;8.60;7.90;;;15.30;99.90;;;;;;5032918;28;20479;-71
2023/08/30 01:48:16;;;;;;;8.60;7.90;;;15.30;99.90;;;;;;5032744;28;20958;-71
2023/08/30 01:50:45;;;;;;;8.97;8.17;;;15.30;99.90;;;;;;5035626;28;20531;-71
2023/08/30 01:53:15;;;;;;;9.67;8.97;;;15.30;99.90;;;;;;5037142;28;20463;-71
2023/08/30 01:55:44;;;;;;;8.67;8.07;;;15.30;99.90;;;;;;5037003;28;20537;-71
2023/08/30 01:58:14;;;;;;;9.80;9.00;;;15.30;99.90;;;;;;5035487;28;20422;-71
2023/08/30 02:00:43;;;;;;;8.63;8.03;;;15.30;99.90;;;;;;5036127;28;20439;-71
2023/08/30 02:03:12;;;;;;;9.50;8.80;;;15.30;99.90;;;;;;5035419;28;20504;-71
2023/08/30 02:05:51;;;;;;;9.00;8.30;;;15.30;99.90;;;;;;5036795;28;20561;-71
2023/08/30 02:08:23;;;;;;;9.13;8.43;;;15.30;99.90;;;;;;5035364;28;20431;-71
2023/08/30 02:10:57;;;;;;;9.00;8.30;;;15.30;99.90;;;;;;5036807;28;20405;-71
2023/08/30 02:13:30;;;;;;;8.33;7.70;;;15.20;99.90;;;;;;5035242;28;20956;-71
2023/08/30 02:16:01;;;;;;;9.40;8.40;;;15.20;99.90;;;;;;5036600;28;20440;-71
2023/08/30 02:18:30;;;;;;;10.00;9.10;;;15.20;99.90;;;;;;5035877;28;20458;-71
2023/08/30 02:21:02;;;;;;;10.03;9.23;;;15.20;99.90;;;;;;5037832;28;20480;-71
2023/08/30 02:23:30;;;;;;;9.10;8.40;;;15.20;99.90;;;;;;5036826;28;20443;-71
2023/08/30 02:25:58;;;;;;;10.60;9.77;;;15.20;99.90;;;;;;5036643;28;20874;-71
2023/08/30 02:28:28;;;;;;;9.43;8.70;;;15.20;99.90;;;;;;5036590;28;20431;-71
2023/08/30 02:30:56;;;;;;;10.60;9.80;;;15.20;99.90;;;;;;5036858;28;20529;-71
2023/08/30 02:33:24;;;;;;;9.93;8.90;;;15.20;99.90;;;;;;5036107;28;20526;-71
2023/08/30 02:35:53;;;;;;;10.50;9.60;;;15.20;99.90;;;;;;5036318;28;20429;-71
2023/08/30 02:38:21;;;;;;;9.17;8.37;;;15.20;99.90;;;;;;5034759;28;20433;-71
2023/08/30 02:40:50;;;;;;;9.70;9.00;;;15.20;99.90;;;;;;5035868;28;20451;-71
2023/08/30 02:43:18;;;;;;;9.80;9.10;;;15.20;99.90;;;;;;5034755;28;20475;-71
2023/08/30 02:45:48;;;;;;;9.97;9.13;;;15.20;99.90;;;;;;5034561;28;20475;-71
2023/08/30 02:48:16;;;;;;;9.97;9.27;;;15.20;99.90;;;;;;5034672;28;20830;-71
2023/08/30 02:50:44;;;;;;;10.20;9.50;;;15.20;99.90;;;;;;5034539;28;21019;-71
2023/08/30 02:53:12;;;;;;;10.63;9.83;;;15.20;99.90;;;;;;5035775;28;20910;-71
2023/08/30 02:55:41;;;;;;;10.73;9.83;;;15.20;99.90;;;;;;5034519;28;20441;-71
2023/08/30 02:58:09;;;;;;;10.93;10.03;;;15.20;99.90;;;;;;5035629;28;20489;-71
2023/08/30 03:00:39;;;;;;;11.90;10.83;;;15.10;99.90;;;;;;5033402;28;20459;-71
2023/08/30 03:03:10;;;;;;;10.77;9.97;;;15.10;99.90;;;;;;5034408;28;20550;-71
2023/08/30 03:05:39;;;;;;;11.03;10.23;;;15.10;99.90;;;;;;5034217;28;20446;-71
2023/08/30 03:08:08;;;;;;;10.93;10.03;;;15.10;99.90;;;;;;5034278;28;20490;-71
2023/08/30 03:10:36;;;;;;;11.10;10.10;;;15.10;99.90;;;;;;5034202;28;20421;-75
2023/08/30 03:13:05;;;;;;;11.50;10.50;;;15.10;99.90;;;;;;5035674;28;20476;-71
2023/08/30 03:15:33;;;;;;;11.57;10.57;;;15.10;99.90;;;;;;5034053;28;21051;-71
2023/08/30 03:18:03;;;;;;;12.00;11.00;;;15.00;99.90;;;;;;5034116;28;20455;-71
2023/08/30 03:20:33;;;;;;;13.83;12.77;;;15.00;99.90;;;;;;5035283;28;20785;-71
2023/08/30 03:23:01;;;;;;;11.80;10.90;;;15.00;99.90;;;;;;5035247;28;21035;-71
2023/08/30 03:25:30;;;;;;;12.83;11.93;;;15.00;99.90;;;;;;5033788;28;20475;-71
2023/08/30 03:27:59;;;;;;;12.53;11.63;;;15.00;99.90;;;;;;5034125;28;20927;-71
2023/08/30 03:30:28;;;;;;;12.03;11.13;;;15.00;99.90;;;;;;5033793;28;20956;-71
2023/08/30 03:32:56;;;;;;;12.83;11.67;;;15.00;99.90;;;;;;5034922;28;20439;-71
2023/08/30 03:35:24;;;;;;;9.73;8.93;;;15.00;99.90;;;;;;5033686;28;20513;-71
2023/08/30 03:37:54;;;;;;;13.20;12.20;;;15.00;99.90;;;;;;5033666;28;20480;-71
2023/08/30 03:40:24;;;;;;;13.67;12.77;;;15.00;99.90;;;;;;5033740;28;20494;-71
2023/08/30 03:42:52;;;;;;;13.93;12.83;;;14.90;99.90;;;;;;5033536;28;20443;-71
2023/08/30 03:45:20;;;;;;;13.20;12.10;;;14.90;99.90;;;;;;5033427;28;20576;-71
2023/08/30 03:47:49;;;;;;;13.40;12.40;;;14.90;99.90;;;;;;5033525;28;20504;-71
2023/08/30 03:50:17;;;;;;;13.83;12.60;;;14.90;99.90;;;;;;5033377;28;20447;-71
2023/08/30 03:52:46;;;;;;;13.40;12.20;;;14.90;99.90;;;;;;5033339;28;20446;-71
2023/08/30 03:55:15;;;;;;;13.67;12.47;;;14.90;99.90;;;;;;5033214;28;20466;-71
2023/08/30 03:57:43;;;;;;;13.70;12.60;;;14.90;99.90;;;;;;5034567;28;20434;-71
2023/08/30 04:00:12;;;;;;;14.50;13.33;;;14.90;99.90;;;;;;5034398;28;20410;-71
2023/08/30 04:02:44;;;;;;;15.37;14.17;;;14.90;99.90;;;;;;5034625;28;20476;-71
2023/08/30 04:05:13;;;;;;;16.00;14.80;;;14.80;99.90;;;;;;5032786;28;20486;-71
2023/08/30 04:07:41;;;;;;;13.47;12.47;;;14.80;99.90;;;;;;5033022;28;20546;-71
2023/08/30 04:10:10;;;;;;;14.70;13.60;;;14.80;99.90;;;;;;5032968;28;20455;-71
2023/08/30 04:12:39;;;;;;;14.60;13.60;;;14.80;99.90;;;;;;5034066;28;20562;-71
2023/08/30 04:15:08;;;;;;;14.80;13.70;;;14.80;99.90;;;;;;5034148;28;20858;-71
2023/08/30 04:17:36;;;;;;;14.97;13.77;;;14.80;99.90;;;;;;5034140;28;20455;-71
2023/08/30 04:20:05;;;;;;;19.67;18.07;;;14.80;99.90;;;;;;5032834;28;20952;-72
2023/08/30 04:22:34;;;;;;;15.20;14.00;;;14.80;99.90;;;;;;5032864;28;20421;-71
2023/08/30 04:25:03;;;;;;;16.63;15.23;;;14.80;99.90;;;;;;5032537;28;20463;-71
2023/08/30 04:27:31;;;;;;;14.20;13.20;;;14.80;99.90;;;;;;5032655;28;20456;-72
2023/08/30 04:30:01;;;;;;;16.83;15.53;;;14.80;99.90;;;;;;5033984;28;20463;-71
2023/08/30 04:32:29;;;;;;;16.40;14.83;;;14.80;99.90;;;;;;5032607;28;20944;-71
2023/08/30 04:34:57;;;;;;;15.20;14.00;;;14.80;99.90;;;;;;5032711;28;20456;-71
2023/08/30 04:37:26;;;;;;;15.77;14.47;;;14.80;99.90;;;;;;5032469;28;20447;-71
2023/08/30 04:39:54;;;;;;;14.70;13.60;;;14.80;99.90;;;;;;5033554;28;20533;-71
2023/08/30 04:42:22;;;;;;;14.60;13.20;;;14.80;99.90;;;;;;5032035;28;20479;-71
2023/08/30 04:44:51;;;;;;;16.87;15.47;;;14.80;99.90;;;;;;5032231;28;20445;-71
2023/08/30 04:47:20;;;;;;;16.73;15.23;;;14.80;99.90;;;;;;5032331;28;20448;-71
2023/08/30 04:49:51;;;;;;;15.50;14.20;;;14.80;99.90;;;;;;5032692;28;20421;-71
2023/08/30 04:52:20;;;;;;;17.93;16.63;;;14.80;99.90;;;;;;5032276;28;20451;-72
2023/08/30 04:54:50;;;;;;;18.17;16.73;;;14.80;99.90;;;;;;5032214;28;21057;-72
2023/08/30 04:57:19;;;;;;;18.87;17.27;;;14.80;99.90;;;;;;5033522;28;20497;-72
2023/08/30 04:59:47;;;;;;;20.63;18.73;;;14.80;99.90;;;;;;5032219;28;20442;-72
2023/08/30 05:02:16;;;;;;;25.53;23.23;;;14.80;99.90;;;;;;5032260;28;20421;-72
2023/08/30 05:05:07;;;;;;;19.87;18.07;;;14.80;99.90;;;;;;5032935;28;20491;-72
2023/08/30 05:07:35;;;;;;;17.60;16.20;;;14.80;99.90;;;;;;5036175;28;20429;-72
2023/08/30 05:10:06;;;;;;;17.83;16.43;;;14.80;99.90;;;;;;5035161;28;20485;-72
2023/08/30 05:12:35;;;;;;;17.10;15.80;;;14.80;99.90;;;;;;5033420;28;21011;-72
2023/08/30 05:15:03;;;;;;;17.20;15.80;;;14.80;99.90;;;;;;5034056;28;20988;-71
2023/08/30 05:17:32;;;;;;;17.83;16.53;;;14.80;99.90;;;;;;5032672;28;20964;-72
2023/08/30 05:20:01;;;;;;;18.40;17.00;;;14.80;99.90;;;;;;5032894;28;20534;-72
2023/08/30 05:22:31;;;;;;;16.50;15.10;;;14.70;99.90;;;;;;5035939;28;20449;-72
2023/08/30 05:24:59;;;;;;;19.30;17.70;;;14.70;99.90;;;;;;5037588;28;20469;-71
2023/08/30 05:27:27;;;;;;;18.63;17.20;;;14.70;99.90;;;;;;5037400;28;20959;-71
2023/08/30 05:29:56;;;;;;;18.20;16.60;;;14.70;99.90;;;;;;5037092;28;20449;-71
2023/08/30 05:32:25;;;;;;;18.27;16.90;;;14.70;99.90;;;;;;5036701;28;20449;-71
2023/08/30 05:35:21;;;;;;;19.63;18.13;;;14.70;99.90;;;;;;5036267;28;20887;-71
2023/08/30 05:38:07;;;;;;;17.70;16.20;;;14.70;99.90;;;;;;5036798;28;20517;-71
2023/08/30 05:40:42;;;;;;;18.73;17.27;;;14.70;99.90;;;;;;5036067;28;20442;-71
2023/08/30 05:43:10;;;;;;;19.90;18.33;;;14.70;99.90;;;;;;5035976;28;20538;-71
2023/08/30 05:45:39;;;;;;;20.10;18.50;;;14.70;99.90;;;;;;5035953;28;20437;-71
2023/08/30 05:48:09;;;;;;;19.10;17.60;;;14.70;99.90;;;;;;5036021;28;20537;-71
2023/08/30 05:50:38;;;;;;;20.77;19.10;;;14.70;99.90;;;;;;5035809;28;20454;-71
2023/08/30 05:53:07;;;;;;;18.90;17.40;;;14.70;99.90;;;;;;5035755;28;20504;-71
2023/08/30 05:55:35;;;;;;;20.90;19.20;;;14.70;99.90;;;;;;5036967;28;20438;-71
2023/08/30 05:58:06;;;;;;;20.70;19.13;;;14.70;99.90;;;;;;5036378;28;20533;-71
2023/08/30 06:00:34;;;;;;;21.23;19.50;;;14.80;99.90;;;;;;5035552;28;20450;-71
2023/08/30 06:03:04;;;;;;;21.53;19.63;;;14.80;99.90;;;;;;5036666;28;20526;-71
2023/08/30 06:05:32;;;;;;;21.40;19.70;;;14.80;99.90;;;;;;5036932;28;20802;-71
2023/08/30 06:08:00;;;;;;;16.60;15.27;;;14.80;99.90;;;;;;5036809;28;20515;-71
2023/08/30 06:10:30;;;;;;;21.10;19.30;;;14.80;99.90;;;;;;5037033;28;20457;-71
2023/08/30 06:12:58;;;;;;;22.57;20.77;;;14.80;99.90;;;;;;5036919;28;20533;-71
2023/08/30 06:15:26;;;;;;;20.13;18.53;;;14.90;99.90;;;;;;5035234;28;20521;-72
2023/08/30 06:17:54;;;;;;;21.17;19.47;;;14.90;99.90;;;;;;5036573;28;20461;-72
2023/08/30 06:20:23;;;;;;;21.93;19.80;;;14.90;99.90;;;;;;5036395;28;20443;-71
2023/08/30 06:22:51;;;;;;;22.50;20.60;;;15.00;99.90;;;;;;5036633;28;20485;-71
2023/08/30 06:25:19;;;;;;;21.27;19.53;;;15.00;99.90;;;;;;5036539;28;20465;-71
2023/08/30 06:27:59;;;;;;;22.73;20.83;;;15.10;99.90;;;;;;5036635;28;20466;-71
2023/08/30 06:30:27;;;;;;;22.13;20.03;;;15.10;99.90;;;;;;5036965;28;20451;-71
2023/08/30 06:32:55;;;;;;;21.33;19.53;;;15.20;99.90;;;;;;5036680;28;20546;-71
2023/08/30 06:35:23;;;;;;;22.73;20.83;;;15.20;99.90;;;;;;5034964;28;20489;-71
2023/08/30 06:37:52;;;;;;;22.77;21.07;;;15.20;99.90;;;;;;5036509;28;20541;-71
2023/08/30 06:40:22;;;;;;;23.67;21.50;;;15.30;99.90;;;;;;5036202;28;20438;-71
2023/08/30 06:42:50;;;;;;;21.67;19.77;;;15.30;99.90;;;;;;5036183;28;20926;-71
2023/08/30 06:45:20;;;;;;;22.77;20.70;;;15.40;99.90;;;;;;5036347;28;20476;-71
2023/08/30 06:47:49;;;;;;;21.07;19.40;;;15.40;99.90;;;;;;5035911;28;20533;-71
2023/08/30 06:50:17;;;;;;;22.30;20.40;;;15.50;99.90;;;;;;5035993;28;20777;-72
2023/08/30 06:52:46;;;;;;;20.90;19.03;;;15.50;99.90;;;;;;5035762;28;20424;-72
2023/08/30 06:55:14;;;;;;;20.57;18.77;;;15.60;99.90;;;;;;5036045;28;20429;-72
2023/08/30 06:57:42;;;;;;;19.73;18.13;;;15.60;99.90;;;;;;5036011;28;20872;-72
2023/08/30 07:00:11;;;;;;;20.70;19.00;;;15.60;99.90;;;;;;5035792;28;20791;-72
2023/08/30 07:02:44;;;;;;;21.07;19.30;;;15.70;99.90;;;;;;5036141;28;20410;-71
2023/08/30 07:05:13;;;;;;;24.97;22.57;;;15.80;99.90;;;;;;5035719;28;20451;-69
2023/08/30 07:07:41;;;;;;;21.07;19.23;;;15.80;99.90;;;;;;5035979;28;20574;-69
2023/08/30 07:10:10;;;;;;;19.50;17.90;;;15.90;99.90;;;;;;5036090;28;20471;-69
2023/08/30 07:12:38;;;;;;;31.60;28.33;;;15.90;99.90;;;;;;5035582;28;20439;-69
2023/08/30 07:15:07;;;;;;;22.80;20.80;;;15.90;99.90;;;;;;5035522;28;20506;-69
2023/08/30 07:17:35;;;;;;;20.00;18.37;;;16.00;99.90;;;;;;5035502;28;20428;-72
2023/08/30 07:20:21;;;;;;;18.73;17.13;;;16.00;99.90;;;;;;5035614;28;20402;-72
2023/08/30 07:22:49;;;;;;;20.77;18.97;;;16.10;99.90;;;;;;5035346;28;20497;-71
2023/08/30 07:25:17;;;;;;;21.20;19.20;;;16.10;99.90;;;;;;5034551;28;20469;-72
2023/08/30 07:27:46;;;;;;;19.07;17.37;;;16.20;99.90;;;;;;5035556;28;21013;-72
2023/08/30 07:30:14;;;;;;;20.50;18.73;;;16.20;99.90;;;;;;5035666;28;20978;-71
2023/08/30 07:32:43;;;;;;;19.00;17.33;;;16.20;99.90;;;;;;5034030;28;20450;-72
2023/08/30 07:35:11;;;;;;;18.60;16.93;;;16.30;99.90;;;;;;5035503;28;20430;-71
2023/08/30 07:37:44;;;;;;;18.30;16.73;;;16.30;99.90;;;;;;5035410;28;20394;-72
2023/08/30 07:40:12;;;;;;;17.97;16.27;;;16.40;99.90;;;;;;5035135;28;20505;-72
2023/08/30 07:42:40;;;;;;;16.87;15.40;;;16.40;99.90;;;;;;5035383;28;20414;-71
2023/08/30 07:45:10;;;;;;;18.93;17.23;;;16.40;99.90;;;;;;5034945;28;20458;-70
2023/08/30 07:47:38;;;;;;;16.40;15.10;;;16.50;99.90;;;;;;5034854;28;20585;-71
2023/08/30 07:50:08;;;;;;;15.37;14.10;;;16.60;99.90;;;;;;5033530;28;20451;-70
2023/08/30 07:52:36;;;;;;;16.17;14.67;;;16.60;99.90;;;;;;5035289;28;20479;-70
2023/08/30 07:55:15;;;;;;;16.13;14.80;;;16.70;99.90;;;;;;5035702;28;20453;-71
2023/08/30 07:57:43;;;;;;;15.23;13.90;;;16.80;99.90;;;;;;5034997;28;20497;-70
2023/08/30 08:00:13;;;;;;;15.23;13.90;;;16.90;99.90;;;;;;5034687;28;20417;-71
2023/08/30 08:02:44;;;;;;;15.30;13.80;;;16.90;99.90;;;;;;5035181;28;20398;-70
2023/08/30 08:05:12;;;;;;;15.33;14.03;;;16.90;99.90;;;;;;5034968;28;20470;-71
2023/08/30 08:07:43;;;;;;;13.97;12.60;;;17.00;99.90;;;;;;5034608;28;20516;-71
2023/08/30 08:10:12;;;;;;;14.40;13.10;;;17.00;99.90;;;;;;5034985;28;20565;-71
2023/08/30 08:12:41;;;;;;;14.87;13.57;;;17.10;99.90;;;;;;5034350;28;20443;-71
2023/08/30 08:15:10;;;;;;;12.90;11.80;;;17.20;99.90;;;;;;5034361;28;20425;-71
2023/08/30 08:17:39;;;;;;;12.83;11.63;;;17.30;99.90;;;;;;5034287;28;20948;-72
2023/08/30 08:20:08;;;;;;;13.10;11.80;;;17.30;99.90;;;;;;5034202;28;20432;-70
2023/08/30 08:22:36;;;;;;;13.67;12.47;;;17.40;99.90;;;;;;5033218;28;20462;-71
2023/08/30 08:25:05;;;;;;;11.17;10.20;;;17.40;99.90;;;;;;5034168;28;20483;-71
2023/08/30 08:27:33;;;;;;;12.80;11.50;;;17.50;99.90;;;;;;5034157;28;20474;-72
2023/08/30 08:30:03;;;;;;;14.50;13.10;;;17.50;99.90;;;;;;5032773;28;20472;-71
2023/08/30 08:32:31;;;;;;;11.70;10.63;;;17.60;99.90;;;;;;5034458;28;20427;-71
2023/08/30 08:35:00;;;;;;;10.87;9.87;;;17.60;99.90;;;;;;5032612;28;20533;-71
2023/08/30 08:37:28;;;;;;;11.40;10.23;;;17.60;99.90;;;;;;5034236;28;20786;-72
2023/08/30 08:39:56;;;;;;;11.43;10.23;;;17.60;99.90;;;;;;5034182;28;20982;-71
2023/08/30 08:42:24;;;;;;;12.43;11.30;;;17.70;99.90;;;;;;5034600;28;20451;-71
2023/08/30 08:44:54;;;;;;;11.57;10.57;;;17.70;99.90;;;;;;5036931;28;20542;-71
2023/08/30 08:47:24;;;;;;;11.60;10.57;;;17.70;99.90;;;;;;5036475;28;20409;-71
2023/08/30 08:49:53;;;;;;;10.50;9.50;;;17.80;99.90;;;;;;5036659;28;20807;-71
2023/08/30 08:52:21;;;;;;;11.60;10.60;;;17.90;99.90;;;;;;5036017;28;20805;-71
2023/08/30 08:55:00;;;;;;;10.70;9.80;;;17.90;99.90;;;;;;5034170;28;20954;-71
2023/08/30 08:57:31;;;;;;;10.60;9.60;;;17.90;99.90;;;;;;5034468;28;20439;-71
2023/08/30 08:59:59;;;;;;;10.07;9.17;;;18.00;99.90;;;;;;5034847;28;20418;-71
2023/08/30 09:02:29;;;;;;;10.80;9.70;;;18.10;99.90;;;;;;5034793;28;20421;-71
2023/08/30 09:04:59;;;;;;;10.83;9.83;;;18.10;99.90;;;;;;5033632;28;20517;-70
2023/08/30 09:07:28;;;;;;;11.60;10.50;;;18.20;99.90;;;;;;5033607;28;20443;-72
2023/08/30 09:09:57;;;;;;;10.60;9.70;;;18.30;99.90;;;;;;5033785;28;20420;-72
2023/08/30 09:12:25;;;;;;;11.47;10.27;;;18.30;99.90;;;;;;5034137;28;20513;-72
2023/08/30 09:14:55;;;;;;;10.60;9.60;;;18.40;99.90;;;;;;5034331;28;20580;-71
2023/08/30 09:17:23;;;;;;;10.73;9.73;;;18.40;99.90;;;;;;5034777;28;20545;-72
2023/08/30 09:19:53;;;;;;;10.53;9.63;;;18.50;99.90;;;;;;5034771;28;20451;-72
2023/08/30 09:22:21;;;;;;;9.90;9.00;;;18.50;99.90;;;;;;5034359;28;20493;-73
2023/08/30 09:24:49;;;;;;;9.57;8.70;;;18.60;99.90;;;;;;5034565;28;20455;-72
2023/08/30 09:27:19;;;;;;;11.77;10.77;;;18.70;99.90;;;;;;5034503;28;20422;-72
2023/08/30 09:29:47;;;;;;;12.70;11.40;;;18.70;99.90;;;;;;5035033;28;20502;-72
2023/08/30 09:32:22;;;;;;;11.27;10.23;;;18.80;99.90;;;;;;5035084;28;20463;-72
2023/08/30 09:34:50;;;;;;;10.53;9.63;;;18.90;99.90;;;;;;5034874;28;20454;-72
2023/08/30 09:37:23;;;;;;;8.77;7.97;;;19.00;99.90;;;;;;5034651;28;20470;-73
2023/08/30 09:39:51;;;;;;;9.73;8.20;;;19.00;99.90;;;;;;5034374;28;20434;-73
2023/08/30 09:42:20;;;;;;;9.20;8.20;;;19.10;99.90;;;;;;5034090;28;20521;-72
2023/08/30 09:44:48;;;;;;;9.50;8.50;;;19.10;99.90;;;;;;5034000;28;20542;-72
2023/08/30 09:47:17;;;;;;;10.50;9.40;;;19.10;99.90;;;;;;5034287;28;20443;-73
2023/08/30 09:49:46;;;;;;;10.13;9.23;;;19.20;99.90;;;;;;5033995;28;20467;-72
2023/08/30 09:52:16;;;;;;;9.93;8.93;;;19.20;99.90;;;;;;5034137;28;20816;-72
2023/08/30 09:54:47;;;;;;;10.57;9.57;;;19.20;99.90;;;;;;5034051;28;20998;-72
2023/08/30 09:57:16;;;;;;;11.57;10.47;;;19.20;99.90;;;;;;5035012;28;20876;-72
2023/08/30 09:59:45;;;;;;;22.60;19.33;;;19.30;99.90;;;;;;5033878;28;20967;-72
2023/08/30 10:02:14;;;;;;;12.67;11.47;;;19.30;99.90;;;;;;5034301;28;20442;-72
2023/08/30 10:04:44;;;;;;;12.83;11.63;;;19.30;99.90;;;;;;5034032;28;20490;-72
2023/08/30 10:07:14;;;;;;;11.37;10.17;;;19.40;99.90;;;;;;5034060;28;20502;-72
2023/08/30 10:09:43;;;;;;;12.07;10.97;;;19.50;99.90;;;;;;5035176;28;20466;-72
2023/08/30 10:12:33;;;;;;;11.07;10.07;;;19.50;99.90;;;;;;5037720;28;20450;-72
2023/08/30 10:15:01;;;;;;;10.90;9.87;;;19.60;99.90;;;;;;5042303;28;20553;-73
2023/08/30 10:17:34;;;;;;;12.03;10.83;;;19.60;99.90;;;;;;5037386;28;20457;-72
2023/08/30 10:20:06;;;;;;;12.23;11.07;;;19.60;99.90;;;;;;5038667;28;20419;-73
2023/08/30 10:22:38;;;;;;;10.67;9.60;;;19.70;99.90;;;;;;5038040;28;20473;-72
2023/08/30 10:25:11;;;;;;;12.03;10.77;;;19.70;99.90;;;;;;5036661;28;20498;-72
2023/08/30 10:27:44;;;;;;;12.03;10.53;;;19.70;99.90;;;;;;5037811;28;20529;-72
2023/08/30 10:30:13;;;;;;;11.23;10.10;;;19.70;99.90;;;;;;5037361;28;20819;-73
2023/08/30 10:32:42;;;;;;;10.93;9.87;;;19.70;99.90;;;;;;5036621;28;20440;-72
2023/08/30 10:35:13;;;;;;;12.27;11.07;;;19.70;99.90;;;;;;5036579;28;20899;-72
2023/08/30 10:37:41;;;;;;;11.43;10.33;;;19.60;99.90;;;;;;5035399;28;20834;-72
2023/08/30 10:40:11;;;;;;;12.27;11.03;;;19.60;99.90;;;;;;5036046;28;20471;-72
2023/08/30 10:42:41;;;;;;;15.43;12.43;;;19.60;99.90;;;;;;5035142;28;20932;-72
2023/08/30 10:45:09;;;;;;;15.37;12.00;;;19.60;99.90;;;;;;5036395;28;20462;-72
2023/08/30 10:47:42;;;;;;;12.70;11.40;;;19.60;99.90;;;;;;5036574;28;20415;-72
2023/08/30 10:50:11;;;;;;;14.10;12.80;;;19.60;99.90;;;;;;5035943;28;20471;-73
2023/08/30 10:52:40;;;;;;;14.43;12.77;;;19.70;99.90;;;;;;5036362;28;20804;-72
2023/08/30 10:55:10;;;;;;;22.63;14.93;;;19.70;99.90;;;;;;5035804;28;20455;-72
2023/08/30 10:57:42;;;;;;;14.10;12.80;;;19.70;99.90;;;;;;5035840;28;20966;-72
2023/08/30 11:00:13;;;;;;;16.30;14.60;;;19.70;99.90;;;;;;5034386;28;20436;-72
2023/08/30 11:02:45;;;;;;;15.23;13.73;;;19.70;99.90;;;;;;5035879;28;20419;-72
2023/08/30 11:05:15;;;;;;;16.53;14.77;;;19.70;99.90;;;;;;5035648;28;20466;-73
2023/08/30 11:07:45;;;;;;;16.37;14.67;;;19.70;99.90;;;;;;5035451;28;20445;-72
2023/08/30 11:10:13;;;;;;;18.33;16.60;;;19.70;99.90;;;;;;5034173;28;20984;-72
2023/08/30 11:12:44;;;;;;;17.60;15.80;;;19.70;99.90;;;;;;5035583;28;20509;-72
2023/08/30 11:15:14;;;;;;;15.83;14.43;;;19.80;99.90;;;;;;5035441;28;20557;-72
2023/08/30 11:17:42;;;;;;;17.00;15.37;;;19.80;99.90;;;;;;5034012;28;20547;-72
2023/08/30 11:20:12;;;;;;;16.20;14.70;;;19.80;99.90;;;;;;5035574;28;20442;-73
2023/08/30 11:22:43;;;;;;;16.63;14.93;;;19.80;99.90;;;;;;5034669;28;20446;-72
2023/08/30 11:25:12;;;;;;;15.27;13.87;;;19.70;99.90;;;;;;5035225;28;20866;-72
2023/08/30 11:27:41;;;;;;;15.37;13.73;;;19.70;99.90;;;;;;5035195;28;20979;-73
2023/08/30 11:30:12;;;;;;;15.40;14.07;;;19.70;99.90;;;;;;5035009;28;20906;-72
2023/08/30 11:32:42;;;;;;;17.37;15.77;;;19.70;99.90;;;;;;5035196;28;20431;-72
2023/08/30 11:35:11;;;;;;;17.10;15.60;;;19.70;99.90;;;;;;5035344;28;20465;-73
2023/08/30 11:37:41;;;;;;;14.87;13.50;;;19.70;99.90;;;;;;5035162;28;20463;-72
2023/08/30 11:40:12;;;;;;;17.03;15.60;;;19.60;99.90;;;;;;5033656;28;20986;-72
2023/08/30 11:42:40;;;;;;;17.97;16.40;;;19.60;99.90;;;;;;5034803;28;20802;-72
2023/08/30 11:45:11;;;;;;;18.40;16.90;;;19.60;99.90;;;;;;5034751;28;20951;-72
2023/08/30 11:47:40;;;;;;;16.93;15.33;;;19.60;99.90;;;;;;5035019;28;20451;-72
2023/08/30 11:50:12;;;;;;;16.80;15.13;;;19.50;99.90;;;;;;5034606;28;20470;-72
2023/08/30 11:52:40;;;;;;;17.73;15.87;;;19.50;99.90;;;;;;5035143;28;20439;-73
2023/08/30 11:55:09;;;;;;;20.20;18.40;;;19.50;99.90;;;;;;5034477;28;20835;-72
2023/08/30 11:57:37;;;;;;;16.67;15.30;;;19.50;99.90;;;;;;5034627;28;20935;-72
2023/08/30 12:00:12;;;;;;;16.57;15.17;;;19.50;99.90;;;;;;5034783;28;20435;-72
2023/08/30 12:02:41;;;;;;;18.03;16.43;;;19.50;99.90;;;;;;5034903;28;20430;-72
2023/08/30 12:05:12;;;;;;;15.90;14.50;;;19.50;99.90;;;;;;5034511;28;20458;-73
2023/08/30 12:07:41;;;;;;;18.30;16.80;;;19.50;99.90;;;;;;5034659;28;20431;-72
2023/08/30 12:10:10;;;;;;;16.87;15.33;;;19.50;99.90;;;;;;5034345;28;20501;-73
2023/08/30 12:12:39;;;;;;;17.17;15.60;;;19.50;99.90;;;;;;5033125;28;20455;-73
2023/08/30 12:15:12;;;;;;;16.70;15.20;;;19.50;99.90;;;;;;5034208;28;20495;-73
2023/08/30 12:17:40;;;;;;;17.33;15.83;;;19.50;99.90;;;;;;5034139;28;20911;-73
2023/08/30 12:20:16;;;;;;;17.60;15.90;;;19.50;99.90;;;;;;5034075;28;20874;-72
2023/08/30 12:22:44;;;;;;;18.10;15.20;;;19.50;99.90;;;;;;5032975;28;20526;-73
2023/08/30 12:25:20;;;;;;;16.40;15.00;;;19.50;99.90;;;;;;5034125;28;20451;-72
2023/08/30 12:27:48;;;;;;;15.40;14.00;;;19.50;99.90;;;;;;5032811;28;20439;-73
2023/08/30 12:30:18;;;;;;;15.77;14.27;;;19.50;99.90;;;;;;5032552;28;20467;-72
2023/08/30 12:32:47;;;;;;;14.00;12.80;;;19.50;99.90;;;;;;5033782;28;20466;-73
2023/08/30 12:35:16;;;;;;;15.47;12.60;;;19.50;99.90;;;;;;5033731;28;20454;-74
2023/08/30 12:37:44;;;;;;;14.57;13.07;;;19.50;99.90;;;;;;5033799;28;20978;-74
2023/08/30 12:40:13;;;;;;;16.10;14.60;;;19.50;99.90;;;;;;5033637;28;20939;-74
2023/08/30 12:42:42;;;;;;;13.53;12.33;;;19.50;99.90;;;;;;5033624;28;21005;-74
2023/08/30 12:45:10;;;;;;;13.00;11.90;;;19.50;99.90;;;;;;5032332;28;20536;-73